createdAt,value
2018-03-15T00:01:06.033Z,81.76
2018-03-15T00:02:05.963Z,81.67
2018-03-15T00:03:58.755Z,81.01
2018-03-15T00:04:58.650Z,82.14
2018-03-15T00:06:51.430Z,81.76
2018-03-15T00:07:51.339Z,80.53
2018-03-15T00:09:44.097Z,81.67
2018-03-15T00:10:44.024Z,81.20
2018-03-15T00:12:36.848Z,81.86
2018-03-15T00:13:36.714Z,81.86
2018-03-15T00:15:29.471Z,80.53
2018-03-15T00:16:29.401Z,81.10
2018-03-15T00:18:22.190Z,81.67
2018-03-15T00:19:22.108Z,81.10
2018-03-15T00:21:14.858Z,80.91
2018-03-15T00:22:14.799Z,81.57
2018-03-15T00:24:07.566Z,81.01
2018-03-15T00:25:07.489Z,81.01
2018-03-15T00:27:00.264Z,80.53
2018-03-15T00:28:00.191Z,80.15
2018-03-15T00:29:52.981Z,81.01
2018-03-15T00:30:52.871Z,80.63
2018-03-15T00:32:45.642Z,80.34
2018-03-15T00:33:45.579Z,80.25
2018-03-15T00:35:38.366Z,80.34
2018-03-15T00:36:38.288Z,80.25
2018-03-15T00:38:31.051Z,81.76
2018-03-15T00:39:30.980Z,81.01
2018-03-15T00:41:23.751Z,81.38
2018-03-15T00:42:23.671Z,80.44
2018-03-15T00:44:16.569Z,81.38
2018-03-15T00:45:16.381Z,80.63
2018-03-15T00:47:09.143Z,80.72
2018-03-15T00:48:09.062Z,81.10
2018-03-15T00:50:01.856Z,80.34
2018-03-15T00:51:01.778Z,79.96
2018-03-15T00:52:54.540Z,80.25
2018-03-15T00:53:54.466Z,80.44
2018-03-15T00:55:47.250Z,80.34
2018-03-15T00:56:47.166Z,80.44
2018-03-15T00:58:39.913Z,80.44
2018-03-15T00:59:39.839Z,79.49
2018-03-15T01:01:32.660Z,79.87
2018-03-15T01:02:32.576Z,79.21
2018-03-15T01:04:25.346Z,79.11
2018-03-15T01:05:25.273Z,80.53
2018-03-15T01:07:18.038Z,79.49
2018-03-15T01:08:17.963Z,79.49
2018-03-15T01:10:10.726Z,80.25
2018-03-15T01:11:10.654Z,79.58
2018-03-15T01:13:03.458Z,79.77
2018-03-15T01:14:03.359Z,79.21
2018-03-15T01:15:56.144Z,79.21
2018-03-15T01:16:56.052Z,79.68
2018-03-15T01:18:48.793Z,80.06
2018-03-15T01:19:48.725Z,80.15
2018-03-15T01:21:41.529Z,79.87
2018-03-15T01:22:41.412Z,79.39
2018-03-15T01:24:34.174Z,79.21
2018-03-15T01:25:34.106Z,79.77
2018-03-15T01:27:26.875Z,80.06
2018-03-15T01:28:26.788Z,79.87
2018-03-15T01:30:19.553Z,79.21
2018-03-15T01:31:19.485Z,78.73
2018-03-15T01:33:12.260Z,79.87
2018-03-15T01:34:12.168Z,79.02
2018-03-15T01:36:04.920Z,79.21
2018-03-15T01:37:04.870Z,78.64
2018-03-15T01:38:57.613Z,79.11
2018-03-15T01:39:57.540Z,79.30
2018-03-15T01:41:50.291Z,78.92
2018-03-15T01:42:50.216Z,78.64
2018-03-15T01:44:42.988Z,78.92
2018-03-15T01:45:42.913Z,79.11
2018-03-15T01:47:35.659Z,78.45
2018-03-15T01:48:35.592Z,79.11
2018-03-15T01:50:28.358Z,78.92
2018-03-15T01:51:28.273Z,78.73
2018-03-15T01:53:21.076Z,78.92
2018-03-15T01:54:20.972Z,78.35
2018-03-15T01:56:13.720Z,78.07
2018-03-15T01:57:13.656Z,78.26
2018-03-15T01:59:06.411Z,78.54
2018-03-15T02:00:06.332Z,78.16
2018-03-15T02:01:59.097Z,78.64
2018-03-15T02:02:59.028Z,78.45
2018-03-15T02:04:51.790Z,78.92
2018-03-15T02:05:51.705Z,79.21
2018-03-15T02:07:44.464Z,78.16
2018-03-15T02:08:44.395Z,78.35
2018-03-15T02:10:37.166Z,78.45
2018-03-15T02:11:37.084Z,78.07
2018-03-15T02:13:29.865Z,78.45
2018-03-15T02:14:29.769Z,77.97
2018-03-15T02:16:22.531Z,78.07
2018-03-15T02:17:22.467Z,77.69
2018-03-15T02:19:15.215Z,77.97
2018-03-15T02:20:15.146Z,77.40
2018-03-15T02:22:07.919Z,76.65
2018-03-15T02:23:07.820Z,77.69
2018-03-15T02:25:00.584Z,77.22
2018-03-15T02:26:00.510Z,77.69
2018-03-15T02:27:53.276Z,77.03
2018-03-15T02:28:53.199Z,77.50
2018-03-15T02:30:46.008Z,78.16
2018-03-15T02:31:45.891Z,78.07
2018-03-15T02:33:38.657Z,77.12
2018-03-15T02:34:38.589Z,77.50
2018-03-15T02:36:31.368Z,77.12
2018-03-15T02:37:31.282Z,77.59
2018-03-15T02:39:24.036Z,77.22
2018-03-15T02:40:23.966Z,77.31
2018-03-15T02:42:16.744Z,77.03
2018-03-15T02:43:16.646Z,77.12
2018-03-15T02:45:09.427Z,77.50
2018-03-15T02:46:09.361Z,77.69
2018-03-15T02:48:02.124Z,77.50
2018-03-15T02:49:02.044Z,77.97
2018-03-15T02:50:54.805Z,77.12
2018-03-15T02:51:54.741Z,76.74
2018-03-15T02:53:47.493Z,77.40
2018-03-15T02:54:47.419Z,77.03
2018-03-15T02:56:40.186Z,77.22
2018-03-15T02:57:40.104Z,77.12
2018-03-15T02:59:32.878Z,76.93
2018-03-15T03:00:32.887Z,76.65
2018-03-15T03:02:25.552Z,77.12
2018-03-15T03:03:25.481Z,76.84
2018-03-15T03:05:18.245Z,76.93
2018-03-15T03:06:18.167Z,77.12
2018-03-15T03:08:10.925Z,76.74
2018-03-15T03:09:10.848Z,76.74
2018-03-15T03:11:03.593Z,76.93
2018-03-15T03:12:03.531Z,76.55
2018-03-15T03:13:56.316Z,76.84
2018-03-15T03:14:56.203Z,76.55
2018-03-15T03:16:48.958Z,76.65
2018-03-15T03:17:48.891Z,76.55
2018-03-15T03:19:41.647Z,76.65
2018-03-15T03:20:41.567Z,76.84
2018-03-15T03:22:34.356Z,76.74
2018-03-15T03:23:34.284Z,76.55
2018-03-15T03:25:27.124Z,76.84
2018-03-15T03:26:26.959Z,76.84
2018-03-15T03:28:19.727Z,75.98
2018-03-15T03:29:19.649Z,76.17
2018-03-15T03:31:12.547Z,75.79
2018-03-15T03:32:12.516Z,75.98
2018-03-15T03:34:05.248Z,76.08
2018-03-15T03:35:05.148Z,76.93
2018-03-15T03:36:57.914Z,75.98
2018-03-15T03:37:57.830Z,75.70
2018-03-15T03:39:50.594Z,75.98
2018-03-15T03:40:50.513Z,75.98
2018-03-15T03:42:43.263Z,76.27
2018-03-15T03:43:43.196Z,75.98
2018-03-15T03:45:35.962Z,75.42
2018-03-15T03:46:35.880Z,75.98
2018-03-15T03:48:28.637Z,76.36
2018-03-15T03:49:28.579Z,75.60
2018-03-15T03:51:21.341Z,75.79
2018-03-15T03:52:21.256Z,76.27
2018-03-15T03:54:14.018Z,76.65
2018-03-15T03:55:13.952Z,76.27
2018-03-15T03:57:06.723Z,76.27
2018-03-15T03:58:06.638Z,76.08
2018-03-15T03:59:59.428Z,76.27
2018-03-15T04:00:59.335Z,75.42
2018-03-15T04:02:52.091Z,75.51
2018-03-15T04:03:52.010Z,76.08
2018-03-15T04:05:44.778Z,76.08
2018-03-15T04:06:44.701Z,75.51
2018-03-15T04:08:37.449Z,75.70
2018-03-15T04:09:37.387Z,75.60
2018-03-15T04:11:30.146Z,75.60
2018-03-15T04:12:30.070Z,76.08
2018-03-15T04:14:22.822Z,75.42
2018-03-15T04:15:22.757Z,76.08
2018-03-15T04:17:15.509Z,75.60
2018-03-15T04:18:15.424Z,75.98
2018-03-15T04:20:08.187Z,75.60
2018-03-15T04:21:08.122Z,76.08
2018-03-15T04:23:00.878Z,75.51
2018-03-15T04:24:00.812Z,75.60
2018-03-15T04:25:53.561Z,75.51
2018-03-15T04:26:53.495Z,75.98
2018-03-15T04:28:46.278Z,76.27
2018-03-15T04:29:46.199Z,76.08
2018-03-15T04:31:38.942Z,75.98
2018-03-15T04:32:38.872Z,75.32
2018-03-15T04:34:31.631Z,76.55
2018-03-15T04:35:31.552Z,75.89
2018-03-15T04:37:24.324Z,75.89
2018-03-15T04:38:24.252Z,75.51
2018-03-15T04:40:17.002Z,76.84
2018-03-15T04:41:16.924Z,75.51
2018-03-15T04:43:09.692Z,75.98
2018-03-15T04:44:09.687Z,76.84
2018-03-15T04:46:02.368Z,75.79
2018-03-15T04:47:02.289Z,76.17
2018-03-15T04:48:55.060Z,76.27
2018-03-15T04:49:55.015Z,75.70
2018-03-15T04:51:47.729Z,75.32
2018-03-15T04:52:47.654Z,75.98
2018-03-15T04:54:40.446Z,76.08
2018-03-15T04:55:40.351Z,76.65
2018-03-15T04:57:33.100Z,77.22
2018-03-15T04:58:33.060Z,76.36
2018-03-15T05:00:25.816Z,76.27
2018-03-15T05:01:25.717Z,76.08
2018-03-15T05:03:18.478Z,76.08
2018-03-15T05:04:18.413Z,76.46
2018-03-15T05:06:11.182Z,76.46
2018-03-15T05:07:11.122Z,75.60
2018-03-15T05:09:03.869Z,75.79
2018-03-15T05:10:03.780Z,76.17
2018-03-15T05:11:56.571Z,75.51
2018-03-15T05:12:56.504Z,75.51
2018-03-15T05:14:49.328Z,77.03
2018-03-15T05:15:49.180Z,77.03
2018-03-15T05:17:41.928Z,76.55
2018-03-15T05:18:41.853Z,76.84
2018-03-15T05:20:34.683Z,75.79
2018-03-15T05:21:34.550Z,76.74
2018-03-15T05:23:27.301Z,76.08
2018-03-15T05:24:27.228Z,77.03
2018-03-15T05:26:19.989Z,76.55
2018-03-15T05:27:19.912Z,76.84
2018-03-15T05:29:12.699Z,75.98
2018-03-15T05:30:12.616Z,75.60
2018-03-15T05:32:05.354Z,75.98
2018-03-15T05:33:05.274Z,76.08
2018-03-15T05:34:58.867Z,75.70
2018-03-15T05:35:58.798Z,75.98
2018-03-15T05:37:51.612Z,75.89
2018-03-15T05:38:51.478Z,75.98
2018-03-15T05:40:44.256Z,75.85
2018-03-15T05:41:44.168Z,76.46
2018-03-15T05:43:36.915Z,75.51
2018-03-15T05:44:36.844Z,75.42
2018-03-15T05:46:29.664Z,75.28
2018-03-15T05:47:29.565Z,75.79
2018-03-15T05:49:22.330Z,76.08
2018-03-15T05:50:22.262Z,76.46
2018-03-15T05:52:15.059Z,75.38
2018-03-15T05:53:14.985Z,75.38
2018-03-15T05:55:07.758Z,76.99
2018-03-15T05:56:07.666Z,75.66
2018-03-15T05:58:00.434Z,75.95
2018-03-15T05:59:00.356Z,76.61
2018-03-15T06:00:53.199Z,76.42
2018-03-15T06:01:53.069Z,76.70
2018-03-15T06:03:45.843Z,76.23
2018-03-15T06:04:45.753Z,75.09
2018-03-15T06:06:38.517Z,76.04
2018-03-15T06:07:38.458Z,76.14
2018-03-15T06:09:31.345Z,76.42
2018-03-15T06:10:31.222Z,77.18
2018-03-15T06:12:23.991Z,77.18
2018-03-15T06:13:23.932Z,76.42
2018-03-15T06:15:16.675Z,76.61
2018-03-15T06:16:16.608Z,76.42
2018-03-15T06:18:09.378Z,77.18
2018-03-15T06:19:09.302Z,76.80
2018-03-15T06:21:02.035Z,76.42
2018-03-15T06:22:01.963Z,76.61
2018-03-15T06:23:54.723Z,76.89
2018-03-15T06:24:54.653Z,77.18
2018-03-15T06:26:47.422Z,76.80
2018-03-15T06:27:47.426Z,77.94
2018-03-15T06:29:40.111Z,77.27
2018-03-15T06:30:40.031Z,76.80
2018-03-15T06:32:32.777Z,76.61
2018-03-15T06:33:32.713Z,77.56
2018-03-15T06:35:25.488Z,76.32
2018-03-15T06:36:25.391Z,77.08
2018-03-15T06:38:18.210Z,76.70
2018-03-15T06:39:18.077Z,77.08
2018-03-15T06:41:10.943Z,76.99
2018-03-15T06:42:10.774Z,77.56
2018-03-15T06:44:03.541Z,76.99
2018-03-15T06:45:03.474Z,77.27
2018-03-15T06:46:56.247Z,76.89
2018-03-15T06:47:56.169Z,78.41
2018-03-15T06:49:48.932Z,78.03
2018-03-15T06:50:48.852Z,77.84
2018-03-15T06:52:41.639Z,77.84
2018-03-15T06:53:41.578Z,77.18
2018-03-15T06:55:34.371Z,78.13
2018-03-15T06:56:34.288Z,77.94
2018-03-15T06:58:27.074Z,77.46
2018-03-15T06:59:26.999Z,78.98
2018-03-15T07:01:19.805Z,79.07
2018-03-15T07:02:19.722Z,79.64
2018-03-15T07:04:12.489Z,78.69
2018-03-15T07:05:12.404Z,79.07
2018-03-15T07:07:05.199Z,78.41
2018-03-15T07:08:05.146Z,80.02
2018-03-15T07:09:57.916Z,80.68
2018-03-15T07:10:57.846Z,80.40
2018-03-15T07:12:50.632Z,80.58
2018-03-15T07:13:50.551Z,80.40
2018-03-15T07:15:43.371Z,80.02
2018-03-15T07:16:43.268Z,79.45
2018-03-15T07:18:36.016Z,81.63
2018-03-15T07:19:35.947Z,80.77
2018-03-15T07:21:28.726Z,81.25
2018-03-15T07:22:28.646Z,80.68
2018-03-15T07:24:21.400Z,81.44
2018-03-15T07:25:21.327Z,80.11
2018-03-15T07:27:14.119Z,81.44
2018-03-15T07:28:14.042Z,80.44
2018-03-15T07:30:06.812Z,82.33
2018-03-15T07:31:06.739Z,81.10
2018-03-15T07:32:59.518Z,81.86
2018-03-15T07:33:59.435Z,81.95
2018-03-15T07:35:52.203Z,81.76
2018-03-15T07:36:52.140Z,83.71
2018-03-15T07:38:44.913Z,82.62
2018-03-15T07:39:44.829Z,82.57
2018-03-15T07:41:37.625Z,83.52
2018-03-15T07:42:37.522Z,83.24
2018-03-15T07:44:30.368Z,80.77
2018-03-15T07:45:30.244Z,82.05
2018-03-15T07:47:23.016Z,81.34
2018-03-15T07:48:22.939Z,81.15
2018-03-15T07:50:15.692Z,82.29
2018-03-15T07:51:15.628Z,82.20
2018-03-15T07:53:08.381Z,82.48
2018-03-15T07:54:08.306Z,81.92
2018-03-15T07:56:01.102Z,83.43
2018-03-15T07:57:00.982Z,80.68
2018-03-15T07:58:53.757Z,80.21
2018-03-15T07:59:53.669Z,82.20
2018-03-15T08:01:46.433Z,82.01
2018-03-15T08:02:46.352Z,83.90
2018-03-15T08:04:39.145Z,83.24
2018-03-15T08:05:39.120Z,80.96
2018-03-15T08:07:31.778Z,80.87
2018-03-15T08:08:31.709Z,83.52
2018-03-15T08:10:24.610Z,84.04
2018-03-15T08:11:24.391Z,81.25
2018-03-15T08:13:17.184Z,81.92
2018-03-15T08:14:17.139Z,82.76
2018-03-15T08:16:09.872Z,82.05
2018-03-15T08:17:09.781Z,81.25
2018-03-15T08:19:02.575Z,82.90
2018-03-15T08:20:02.536Z,82.81
2018-03-15T08:21:55.249Z,82.01
2018-03-15T08:22:55.182Z,81.25
2018-03-15T08:24:47.965Z,81.44
2018-03-15T08:25:47.875Z,81.20
2018-03-15T08:27:40.642Z,81.82
2018-03-15T08:28:40.555Z,82.10
2018-03-15T08:30:33.497Z,83.05
2018-03-15T08:31:33.244Z,81.72
2018-03-15T08:33:25.993Z,82.10
2018-03-15T08:34:25.923Z,81.25
2018-03-15T08:36:18.788Z,81.63
2018-03-15T08:37:18.709Z,83.24
2018-03-15T08:39:11.451Z,83.05
2018-03-15T08:40:11.397Z,80.25
2018-03-15T08:42:04.188Z,81.44
2018-03-15T08:43:04.096Z,82.14
2018-03-15T08:44:56.869Z,82.62
2018-03-15T08:45:56.800Z,83.00
2018-03-15T08:47:49.559Z,83.75
2018-03-15T08:48:49.472Z,85.17
2018-03-15T08:50:42.299Z,82.81
2018-03-15T08:51:42.159Z,83.28
2018-03-15T08:53:34.945Z,85.08
2018-03-15T08:54:34.839Z,83.56
2018-03-15T08:56:27.595Z,84.99
2018-03-15T08:57:27.511Z,84.04
2018-03-15T08:59:20.266Z,86.03
2018-03-15T09:00:20.280Z,85.55
2018-03-15T09:02:13.030Z,87.35
2018-03-15T09:03:12.887Z,86.22
2018-03-15T09:05:05.624Z,85.74
2018-03-15T09:06:05.557Z,85.46
2018-03-15T09:07:58.406Z,86.03
2018-03-15T09:08:58.307Z,86.79
2018-03-15T09:10:51.225Z,85.27
2018-03-15T09:11:51.027Z,85.17
2018-03-15T09:13:43.765Z,86.12
2018-03-15T09:14:43.710Z,85.36
2018-03-15T09:16:36.481Z,86.79
2018-03-15T09:17:36.378Z,84.51
2018-03-15T09:19:29.129Z,86.98
2018-03-15T09:20:29.178Z,88.02
2018-03-15T09:22:21.832Z,90.01
2018-03-15T09:23:21.749Z,86.12
2018-03-15T09:25:14.510Z,88.40
2018-03-15T09:26:14.445Z,88.49
2018-03-15T09:28:07.238Z,87.64
2018-03-15T09:29:07.164Z,87.83
2018-03-15T09:30:59.913Z,86.69
2018-03-15T09:31:59.852Z,88.96
2018-03-15T09:33:52.625Z,87.49
2018-03-15T09:34:52.550Z,88.30
2018-03-15T09:36:45.298Z,88.44
2018-03-15T09:37:45.238Z,89.20
2018-03-15T09:39:38.042Z,87.97
2018-03-15T09:40:37.977Z,89.72
2018-03-15T09:42:30.721Z,90.34
2018-03-15T09:43:30.650Z,90.15
2018-03-15T09:45:23.408Z,89.67
2018-03-15T09:46:23.342Z,89.86
2018-03-15T09:48:16.115Z,90.34
2018-03-15T09:49:16.022Z,91.28
2018-03-15T09:51:08.848Z,91.57
2018-03-15T09:52:08.759Z,91.19
2018-03-15T09:54:01.536Z,90.72
2018-03-15T09:55:01.444Z,91.38
2018-03-15T09:56:54.200Z,89.86
2018-03-15T09:57:54.136Z,90.43
2018-03-15T09:59:46.905Z,90.43
2018-03-15T10:00:46.819Z,90.62
2018-03-15T10:02:39.573Z,91.66
2018-03-15T10:03:39.507Z,91.57
2018-03-15T10:05:32.272Z,92.61
2018-03-15T10:06:32.190Z,93.37
2018-03-15T10:08:24.997Z,91.57
2018-03-15T10:09:24.932Z,91.76
2018-03-15T10:11:17.697Z,92.33
2018-03-15T10:12:17.624Z,92.61
2018-03-15T10:14:10.409Z,92.04
2018-03-15T10:15:10.321Z,91.95
2018-03-15T10:17:03.126Z,91.28
2018-03-15T10:18:03.075Z,92.52
2018-03-15T10:19:55.824Z,91.00
2018-03-15T10:20:55.781Z,89.86
2018-03-15T10:22:48.566Z,90.53
2018-03-15T10:23:48.507Z,90.24
2018-03-15T10:25:41.283Z,90.34
2018-03-15T10:26:41.187Z,89.11
2018-03-15T10:28:33.999Z,91.09
2018-03-15T10:29:33.912Z,91.28
2018-03-15T10:31:26.680Z,89.39
2018-03-15T10:32:26.603Z,91.66
2018-03-15T10:34:19.446Z,90.05
2018-03-15T10:35:19.375Z,91.76
2018-03-15T10:37:12.154Z,91.38
2018-03-15T10:38:12.089Z,92.71
2018-03-15T10:40:04.845Z,91.66
2018-03-15T10:41:04.765Z,93.94
2018-03-15T10:42:57.624Z,93.46
2018-03-15T10:43:57.562Z,94.42
2018-03-15T10:45:50.408Z,94.27
2018-03-15T10:46:50.301Z,94.18
2018-03-15T10:48:43.214Z,96.45
2018-03-15T10:49:43.144Z,93.08
2018-03-15T10:51:35.918Z,96.12
2018-03-15T10:52:35.833Z,93.46
2018-03-15T10:54:28.614Z,93.56
2018-03-15T10:55:28.555Z,92.80
2018-03-15T10:57:21.372Z,92.61
2018-03-15T10:58:21.347Z,93.56
2018-03-15T11:00:14.114Z,93.56
2018-03-15T11:01:14.022Z,93.18
2018-03-15T11:03:06.849Z,93.65
2018-03-15T11:04:06.748Z,94.32
2018-03-15T11:05:59.567Z,93.18
2018-03-15T11:06:59.481Z,94.04
2018-03-15T11:08:52.325Z,94.13
2018-03-15T11:09:52.263Z,92.71
2018-03-15T11:11:45.047Z,94.32
2018-03-15T11:12:44.936Z,94.98
2018-03-15T11:14:37.739Z,95.84
2018-03-15T11:15:37.664Z,95.17
2018-03-15T11:17:30.442Z,95.84
2018-03-15T11:18:30.353Z,94.51
2018-03-15T11:20:23.336Z,93.80
2018-03-15T11:21:23.199Z,94.18
2018-03-15T11:23:16.014Z,97.02
2018-03-15T11:24:15.884Z,97.69
2018-03-15T11:26:08.742Z,97.02
2018-03-15T11:27:08.652Z,97.50
2018-03-15T11:29:01.375Z,99.96
2018-03-15T11:30:01.328Z,99.99
2018-03-15T11:31:54.146Z,99.99
2018-03-15T11:32:54.101Z,99.96
2018-03-15T11:34:46.932Z,99.99
2018-03-15T11:35:46.871Z,99.20
2018-03-15T11:37:39.719Z,97.97
2018-03-15T11:38:39.582Z,99.99
2018-03-15T11:40:32.420Z,99.96
2018-03-15T11:41:32.289Z,99.99
2018-03-15T11:43:25.062Z,99.99
2018-03-15T11:44:25.027Z,99.99
2018-03-15T11:46:17.918Z,99.99
2018-03-15T11:47:17.678Z,99.68
2018-03-15T11:49:10.463Z,99.68
2018-03-15T11:50:10.357Z,99.99
2018-03-15T11:52:03.131Z,99.99
2018-03-15T11:53:03.069Z,99.99
2018-03-15T11:54:55.830Z,99.99
2018-03-15T11:55:55.755Z,99.99
2018-03-15T11:57:48.562Z,99.99
2018-03-15T11:58:48.488Z,99.99
2018-03-15T12:00:41.303Z,99.99
2018-03-15T12:01:41.185Z,99.99
2018-03-15T12:03:34.021Z,99.99
2018-03-15T12:04:33.910Z,99.99
2018-03-15T12:06:26.704Z,99.99
2018-03-15T12:07:26.624Z,99.99
2018-03-15T12:09:19.503Z,99.99
2018-03-15T12:10:19.411Z,99.99
2018-03-15T12:12:12.245Z,99.99
2018-03-15T12:13:12.138Z,99.99
2018-03-15T12:15:04.958Z,99.99
2018-03-15T12:16:04.879Z,99.99
2018-03-15T12:17:57.733Z,99.99
2018-03-15T12:18:57.693Z,99.99
2018-03-15T12:20:50.606Z,99.99
2018-03-15T12:21:50.380Z,99.99
2018-03-15T12:23:43.145Z,99.99
2018-03-15T12:24:43.069Z,99.99
2018-03-15T12:26:35.895Z,99.99
2018-03-15T12:27:35.771Z,99.99
2018-03-15T12:29:28.600Z,99.99
2018-03-15T12:30:28.548Z,99.99
2018-03-15T12:32:21.322Z,99.99
2018-03-15T12:33:21.291Z,99.99
2018-03-15T12:35:14.073Z,99.99
2018-03-15T12:36:13.995Z,99.99
2018-03-15T12:38:06.762Z,99.99
2018-03-15T12:39:06.682Z,99.99
2018-03-15T12:40:59.466Z,99.99
2018-03-15T12:41:59.387Z,99.99
2018-03-15T12:43:52.171Z,99.99
2018-03-15T12:44:52.098Z,99.99
2018-03-15T12:46:44.941Z,99.99
2018-03-15T12:47:44.862Z,99.99
2018-03-15T12:49:37.681Z,99.99
2018-03-15T12:50:37.589Z,99.99
2018-03-15T12:52:30.468Z,99.99
2018-03-15T12:53:30.357Z,99.99
2018-03-15T12:55:23.203Z,99.99
2018-03-15T12:56:23.088Z,99.99
2018-03-15T12:58:15.907Z,99.99
2018-03-15T12:59:15.853Z,99.99
2018-03-15T13:01:08.628Z,99.99
2018-03-15T13:02:08.546Z,99.99
2018-03-15T13:04:01.321Z,99.99
2018-03-15T13:05:01.271Z,99.99
2018-03-15T13:06:54.174Z,99.99
2018-03-15T13:07:54.122Z,99.99
2018-03-15T13:09:46.812Z,99.99
2018-03-15T13:10:46.732Z,99.99
2018-03-15T13:12:39.574Z,99.99
2018-03-15T13:13:39.502Z,99.99
2018-03-15T13:15:32.527Z,99.99
2018-03-15T13:16:32.400Z,99.99
2018-03-15T13:18:25.168Z,99.99
2018-03-15T13:19:25.095Z,99.99
2018-03-15T13:21:17.925Z,99.99
2018-03-15T13:22:17.865Z,99.99
2018-03-15T13:24:10.846Z,99.99
2018-03-15T13:25:10.726Z,99.99
2018-03-15T13:27:03.614Z,99.99
2018-03-15T13:28:03.521Z,99.99
2018-03-15T13:29:56.320Z,99.99
2018-03-15T13:30:56.255Z,99.99
2018-03-15T13:32:49.142Z,99.99
2018-03-15T13:33:49.107Z,99.99
2018-03-15T13:35:41.936Z,99.99
2018-03-15T13:36:41.838Z,99.99
2018-03-15T13:38:34.671Z,99.99
2018-03-15T13:39:34.558Z,99.99
2018-03-15T13:41:27.344Z,99.99
2018-03-15T13:42:27.303Z,99.99
2018-03-15T13:44:20.212Z,99.99
2018-03-15T13:45:20.112Z,99.99
2018-03-15T13:47:12.934Z,99.99
2018-03-15T13:48:12.835Z,99.99
2018-03-15T13:50:05.723Z,99.99
2018-03-15T13:51:05.687Z,99.99
2018-03-15T13:52:58.475Z,99.99
2018-03-15T13:53:58.380Z,99.99
2018-03-15T13:55:51.157Z,99.99
2018-03-15T13:56:51.110Z,99.99
2018-03-15T13:58:43.968Z,99.99
2018-03-15T13:59:43.798Z,99.99
2018-03-15T14:01:36.903Z,99.99
2018-03-15T14:02:36.783Z,99.99
2018-03-15T14:04:29.586Z,99.99
2018-03-15T14:05:29.526Z,99.99
2018-03-15T14:07:22.371Z,99.99
2018-03-15T14:08:22.302Z,99.99
2018-03-15T14:10:15.187Z,99.99
2018-03-15T14:11:15.027Z,99.99
2018-03-15T14:13:08.846Z,99.99
2018-03-15T14:14:08.826Z,99.99
2018-03-15T14:16:01.691Z,99.99
2018-03-15T14:17:01.502Z,99.99
2018-03-15T14:18:54.444Z,99.99
2018-03-15T14:19:54.187Z,99.99
2018-03-15T14:21:47.217Z,99.99
2018-03-15T14:22:47.152Z,99.99
2018-03-15T14:24:40.033Z,99.99
2018-03-15T14:25:39.862Z,99.99
2018-03-15T14:27:32.760Z,99.99
2018-03-15T14:28:32.604Z,99.99
2018-03-15T14:30:25.385Z,99.99
2018-03-15T14:31:25.308Z,99.99
2018-03-15T14:33:18.261Z,99.99
2018-03-15T14:34:18.212Z,99.99
2018-03-15T14:36:11.042Z,99.99
2018-03-15T14:37:10.960Z,99.99
2018-03-15T14:39:03.712Z,99.99
2018-03-15T14:40:03.717Z,99.99
2018-03-15T14:41:56.629Z,99.99
2018-03-15T14:42:56.506Z,99.99
2018-03-15T14:44:49.299Z,99.99
2018-03-15T14:45:49.198Z,99.99
2018-03-15T14:47:42.024Z,99.99
2018-03-15T14:48:41.988Z,99.99
2018-03-15T14:50:34.893Z,99.99
2018-03-15T14:51:34.729Z,99.99
2018-03-15T14:53:27.537Z,99.99
2018-03-15T14:54:27.424Z,99.99
2018-03-15T14:56:20.239Z,99.99
2018-03-15T14:57:20.132Z,99.99
2018-03-15T14:59:12.958Z,99.99
2018-03-15T15:00:12.915Z,99.99
2018-03-15T15:02:05.776Z,99.99
2018-03-15T15:03:05.711Z,99.99
2018-03-15T15:04:58.496Z,99.99
2018-03-15T15:05:58.418Z,99.99
2018-03-15T15:07:51.222Z,99.99
2018-03-15T15:08:51.284Z,99.99
2018-03-15T15:10:43.969Z,99.99
2018-03-15T15:11:43.865Z,99.99
2018-03-15T15:13:36.631Z,99.99
2018-03-15T15:14:36.564Z,99.99
2018-03-15T15:16:29.400Z,99.99
2018-03-15T15:17:29.305Z,99.99
2018-03-15T15:19:22.085Z,99.99
2018-03-15T15:20:21.987Z,99.99
2018-03-15T15:22:14.773Z,99.99
2018-03-15T15:23:14.712Z,99.99
2018-03-15T15:25:07.555Z,99.99
2018-03-15T15:26:07.449Z,99.99
2018-03-15T15:28:00.372Z,99.99
2018-03-15T15:29:00.387Z,99.99
2018-03-15T15:30:53.117Z,99.99
2018-03-15T15:31:53.035Z,99.99
2018-03-15T15:33:45.797Z,99.99
2018-03-15T15:34:45.721Z,99.99
2018-03-15T15:36:38.531Z,99.99
2018-03-15T15:37:38.417Z,99.99
2018-03-15T15:39:31.268Z,99.99
2018-03-15T15:40:31.090Z,99.99
2018-03-15T15:42:23.977Z,99.99
2018-03-15T15:43:23.881Z,99.99
2018-03-15T15:45:16.710Z,99.99
2018-03-15T15:46:16.574Z,99.99
2018-03-15T15:48:09.412Z,99.99
2018-03-15T15:49:09.310Z,99.99
2018-03-15T15:51:02.111Z,99.99
2018-03-15T15:52:02.026Z,99.99
2018-03-15T15:53:54.828Z,99.99
2018-03-15T15:54:54.762Z,99.99
2018-03-15T15:56:47.551Z,99.99
2018-03-15T15:57:47.450Z,99.99
2018-03-15T15:59:40.257Z,99.99
2018-03-15T16:00:40.154Z,99.99
2018-03-15T16:02:33.024Z,99.99
2018-03-15T16:03:32.915Z,99.99
2018-03-15T16:05:25.728Z,99.99
2018-03-15T16:06:25.631Z,99.99
2018-03-15T16:08:18.429Z,99.99
2018-03-15T16:09:18.508Z,99.99
2018-03-15T16:11:11.093Z,99.99
2018-03-15T16:12:11.027Z,99.99
2018-03-15T16:14:03.767Z,99.99
2018-03-15T16:15:03.689Z,99.99
2018-03-15T16:16:56.466Z,99.99
2018-03-15T16:17:56.591Z,99.99
2018-03-15T16:19:49.288Z,99.99
2018-03-15T16:20:49.219Z,99.99
2018-03-15T16:22:41.940Z,99.99
2018-03-15T16:23:41.852Z,99.99
2018-03-15T16:25:34.676Z,99.99
2018-03-15T16:26:34.612Z,99.99
2018-03-15T16:28:27.471Z,99.99
2018-03-15T16:29:27.312Z,99.99
2018-03-15T16:31:20.104Z,99.99
2018-03-15T16:32:20.014Z,99.99
2018-03-15T16:34:12.885Z,99.99
2018-03-15T16:35:12.696Z,99.99
2018-03-15T16:37:05.579Z,99.99
2018-03-15T16:38:05.594Z,99.99
2018-03-15T16:39:58.288Z,99.99
2018-03-15T16:40:58.202Z,99.99
2018-03-15T16:42:51.047Z,99.99
2018-03-15T16:43:50.981Z,99.99
2018-03-15T16:45:43.813Z,99.99
2018-03-15T16:46:43.792Z,99.99
2018-03-15T16:48:36.627Z,99.99
2018-03-15T16:49:36.508Z,99.99
2018-03-15T16:51:29.498Z,99.99
2018-03-15T16:52:29.424Z,99.99
2018-03-15T16:54:22.274Z,99.99
2018-03-15T16:55:22.181Z,99.99
2018-03-15T16:57:15.013Z,99.99
2018-03-15T16:58:14.947Z,99.99
2018-03-15T17:00:07.944Z,99.99
2018-03-15T17:01:07.812Z,99.99
2018-03-15T17:03:00.841Z,99.99
2018-03-15T17:04:00.495Z,99.99
2018-03-15T17:05:53.354Z,99.99
2018-03-15T17:06:53.249Z,99.99
2018-03-15T17:08:46.119Z,99.99
2018-03-15T17:09:46.082Z,99.99
2018-03-15T17:11:38.832Z,99.99
2018-03-15T17:12:38.751Z,99.99
2018-03-15T17:14:31.620Z,99.99
2018-03-15T17:15:31.464Z,99.99
2018-03-15T17:17:24.214Z,99.99
2018-03-15T17:18:24.149Z,99.99
2018-03-15T17:20:16.946Z,99.99
2018-03-15T17:21:16.867Z,99.99
2018-03-15T17:23:09.680Z,99.99
2018-03-15T17:24:09.610Z,99.99
2018-03-15T17:26:02.419Z,99.99
2018-03-15T17:27:02.330Z,99.99
2018-03-15T17:28:55.089Z,99.99
2018-03-15T17:29:55.017Z,99.99
2018-03-15T17:31:47.789Z,99.99
2018-03-15T17:32:47.705Z,99.99
2018-03-15T17:34:40.522Z,99.99
2018-03-15T17:35:40.447Z,99.99
2018-03-15T17:37:33.222Z,99.99
2018-03-15T17:38:33.136Z,99.99
2018-03-15T17:40:25.909Z,99.99
2018-03-15T17:41:25.835Z,99.99
2018-03-15T17:43:18.577Z,99.99
2018-03-15T17:44:18.513Z,99.99
2018-03-15T17:46:11.275Z,99.99
2018-03-15T17:47:11.198Z,99.99
2018-03-15T17:49:03.951Z,99.99
2018-03-15T17:50:03.885Z,99.99
2018-03-15T17:51:56.644Z,99.99
2018-03-15T17:52:56.560Z,99.99
2018-03-15T17:54:49.318Z,99.99
2018-03-15T17:55:49.245Z,99.99
2018-03-15T17:57:42.012Z,99.99
2018-03-15T17:58:41.928Z,99.99
2018-03-15T18:00:34.884Z,99.99
2018-03-15T18:01:34.816Z,99.99
2018-03-15T18:03:27.582Z,99.99
2018-03-15T18:04:27.500Z,99.99
2018-03-15T18:06:20.248Z,99.99
2018-03-15T18:07:20.268Z,99.99
2018-03-15T18:09:12.942Z,99.99
2018-03-15T18:10:12.860Z,99.99
2018-03-15T18:12:05.624Z,99.99
2018-03-15T18:13:05.551Z,99.99
2018-03-15T18:14:58.304Z,99.99
2018-03-15T18:15:58.261Z,99.99
2018-03-15T18:17:50.990Z,99.99
2018-03-15T18:18:50.911Z,99.99
2018-03-15T18:20:43.676Z,99.99
2018-03-15T18:21:43.599Z,99.99
2018-03-15T18:23:36.353Z,99.99
2018-03-15T18:24:36.277Z,99.99
2018-03-15T18:26:29.051Z,99.99
2018-03-15T18:27:29.030Z,99.99
2018-03-15T18:29:21.746Z,99.99
2018-03-15T18:30:21.662Z,99.99
2018-03-15T18:32:14.548Z,99.99